Аэропорт: Жуляны. Киев

ICAO: UKKK

METAR:
2020-10-24 05:30:00
UKKK 240530Z 23002MPS CAVOK 11/10 Q1013 R26/70D NOSIG
METAR:
2020-10-23 23:04:00
TAF UKKK 232304Z 2400/2424 25003G08MPS 9999 BKN015 TEMPO 2400/2406 1000 BR BKN005 TEMPO 2406/2415 2100 -SHRA BKN007 SCT015CB BECMG 2417/2419 30003G08MPS TEMPO 2419/2424 1000 BR BKN003